createdAt,value
2022-11-22T00:01:12.122Z,1.70
2022-11-22T00:03:40.341Z,1.43
2022-11-22T00:06:08.460Z,1.50
2022-11-22T00:08:36.565Z,1.20
2022-11-22T00:11:04.648Z,1.23
2022-11-22T00:13:32.811Z,1.87
2022-11-22T00:16:01.590Z,1.50
2022-11-22T00:18:31.501Z,1.70
2022-11-22T00:21:05.850Z,1.50
2022-11-22T00:23:34.113Z,1.30
2022-11-22T00:26:02.443Z,1.57
2022-11-22T00:28:30.561Z,1.83
2022-11-22T00:30:58.621Z,1.40
2022-11-22T00:33:26.751Z,1.83
2022-11-22T00:35:56.231Z,1.37
2022-11-22T00:38:24.301Z,1.60
2022-11-22T00:40:52.314Z,1.33
2022-11-22T00:43:20.503Z,1.63
2022-11-22T00:45:48.648Z,1.57
2022-11-22T00:48:16.813Z,2.47
2022-11-22T00:50:44.919Z,1.60
2022-11-22T00:53:14.665Z,1.60
2022-11-22T00:55:42.781Z,1.50
2022-11-22T00:58:10.862Z,1.90
2022-11-22T01:00:39.148Z,1.77
2022-11-22T01:03:07.491Z,1.70
2022-11-22T01:05:35.595Z,1.40
2022-11-22T01:08:03.933Z,1.17
2022-11-22T01:10:35.595Z,1.23
2022-11-22T01:13:04.650Z,1.53
2022-11-22T01:15:33.277Z,1.10
2022-11-22T01:18:01.410Z,1.00
2022-11-22T01:20:30.724Z,1.13
2022-11-22T01:22:58.908Z,1.27
2022-11-22T01:25:27.060Z,1.27
2022-11-22T01:27:56.493Z,1.40
2022-11-22T01:30:24.601Z,1.70
2022-11-22T01:32:53.179Z,1.30
2022-11-22T01:35:21.327Z,1.40
2022-11-22T01:37:49.404Z,1.17
2022-11-22T01:40:17.578Z,1.40
2022-11-22T01:42:49.689Z,1.33
2022-11-22T01:45:45.640Z,1.83
2022-11-22T01:48:31.841Z,1.50
2022-11-22T01:51:04.089Z,1.00
2022-11-22T01:53:35.831Z,1.00
2022-11-22T01:56:07.358Z,1.00
2022-11-22T01:58:37.985Z,1.00
2022-11-22T02:01:08.457Z,1.20
2022-11-22T02:03:40.131Z,1.03
2022-11-22T02:06:09.222Z,1.13
2022-11-22T02:08:42.978Z,1.17
2022-11-22T02:11:12.108Z,0.90
2022-11-22T02:13:44.730Z,1.13
2022-11-22T02:16:14.349Z,1.20
2022-11-22T02:18:42.552Z,0.90
2022-11-22T02:21:10.958Z,0.87
2022-11-22T02:23:51.606Z,0.90
2022-11-22T02:26:21.659Z,1.00
2022-11-22T02:28:53.249Z,1.10
2022-11-22T02:31:38.880Z,0.83
2022-11-22T02:34:07.175Z,0.97
2022-11-22T02:36:40.535Z,0.90
2022-11-22T02:39:10.819Z,0.90
2022-11-22T02:41:41.227Z,0.90
2022-11-22T02:44:11.617Z,0.70
2022-11-22T02:46:48.440Z,1.10
2022-11-22T02:49:21.349Z,0.90
2022-11-22T02:51:49.771Z,0.93
2022-11-22T02:54:17.983Z,1.10
2022-11-22T02:56:48.038Z,1.00
2022-11-22T02:59:16.150Z,1.00
2022-11-22T03:01:45.846Z,0.87
2022-11-22T03:04:24.383Z,1.00
2022-11-22T03:06:53.866Z,1.13
2022-11-22T03:09:22.149Z,0.80
2022-11-22T03:11:51.872Z,1.17
2022-11-22T03:14:20.006Z,1.03
2022-11-22T03:16:48.523Z,1.10
2022-11-22T03:19:16.688Z,1.37
2022-11-22T03:21:45.207Z,1.20
2022-11-22T03:24:13.537Z,1.00
2022-11-22T03:26:42.134Z,0.90
2022-11-22T03:29:11.610Z,0.90
2022-11-22T03:31:39.753Z,1.03
2022-11-22T03:34:07.997Z,1.20
2022-11-22T03:36:36.138Z,1.20
2022-11-22T03:39:04.261Z,2.33
2022-11-22T03:41:32.341Z,0.97
2022-11-22T03:44:00.449Z,1.00
2022-11-22T03:46:29.917Z,3.40
2022-11-22T03:48:58.098Z,1.40
2022-11-22T03:51:27.103Z,1.13
2022-11-22T03:53:55.192Z,1.40
2022-11-22T03:56:24.999Z,1.07
2022-11-22T03:58:53.127Z,1.50
2022-11-22T04:01:21.203Z,1.10
2022-11-22T04:03:52.179Z,1.00
2022-11-22T04:06:20.320Z,1.10
2022-11-22T04:08:49.742Z,1.20
2022-11-22T04:11:17.914Z,0.97
2022-11-22T04:14:03.662Z,1.00
2022-11-22T04:16:31.782Z,1.57
2022-11-22T04:19:01.311Z,1.00
2022-11-22T04:21:34.330Z,1.50
2022-11-22T04:24:21.094Z,1.60
2022-11-22T04:26:49.954Z,1.30
2022-11-22T04:29:18.473Z,1.30
2022-11-22T04:32:04.403Z,1.30
2022-11-22T04:34:34.102Z,1.60
2022-11-22T04:37:03.021Z,1.70
2022-11-22T04:39:31.787Z,2.00
2022-11-22T04:42:17.433Z,1.57
2022-11-22T04:44:46.405Z,1.77
2022-11-22T04:47:38.624Z,1.67
2022-11-22T04:50:23.996Z,1.63
2022-11-22T04:52:54.640Z,1.83
2022-11-22T04:55:22.848Z,1.50
2022-11-22T04:57:54.540Z,2.10
2022-11-22T05:00:27.450Z,2.17
2022-11-22T05:02:55.878Z,2.00
2022-11-22T05:05:25.979Z,1.67
2022-11-22T05:07:54.297Z,2.10
2022-11-22T05:10:26.437Z,1.83
2022-11-22T05:12:55.659Z,2.70
2022-11-22T05:15:23.768Z,2.07
2022-11-22T05:17:51.905Z,1.40
2022-11-22T05:20:20.149Z,1.83
2022-11-22T05:23:07.129Z,1.80
2022-11-22T05:25:35.312Z,2.27
2022-11-22T05:28:03.730Z,1.47
2022-11-22T05:30:31.949Z,1.73
2022-11-22T05:33:00.176Z,2.50
2022-11-22T05:35:28.281Z,2.27
2022-11-22T05:37:59.057Z,1.53
2022-11-22T05:40:27.765Z,1.70
2022-11-22T05:42:56.045Z,1.80
2022-11-22T05:45:24.212Z,2.87
2022-11-22T05:47:52.340Z,2.77
2022-11-22T05:50:20.503Z,2.17
2022-11-22T05:52:48.706Z,2.13
2022-11-22T05:55:18.380Z,2.40
2022-11-22T05:57:46.589Z,2.10
2022-11-22T06:00:15.525Z,2.43
2022-11-22T06:02:43.603Z,2.40
2022-11-22T06:05:11.790Z,1.63
2022-11-22T06:07:39.876Z,1.67
2022-11-22T06:10:08.994Z,2.10
2022-11-22T06:12:38.473Z,1.70
2022-11-22T06:15:07.545Z,1.60
2022-11-22T06:17:35.663Z,1.47
2022-11-22T06:20:06.488Z,2.57
2022-11-22T06:22:34.986Z,2.10
2022-11-22T06:25:03.423Z,2.20
2022-11-22T06:27:31.664Z,1.83
2022-11-22T11:38:33.784Z,0.70
2022-11-22T11:41:17.835Z,0.80
2022-11-22T11:43:47.019Z,0.80
2022-11-22T11:46:20.304Z,0.70
2022-11-22T11:48:49.455Z,0.60
2022-11-22T11:51:27.016Z,0.70
2022-11-22T11:54:00.977Z,0.80
2022-11-22T11:56:33.497Z,0.77
2022-11-22T11:59:07.782Z,0.90
2022-11-22T12:01:38.912Z,1.00
2022-11-22T12:04:15.271Z,0.70
2022-11-22T12:06:53.430Z,0.70
2022-11-22T12:09:34.952Z,1.30
2022-11-22T12:12:17.977Z,0.83
2022-11-22T12:15:10.106Z,0.90
2022-11-22T12:17:47.033Z,1.00
2022-11-22T12:20:22.236Z,0.60
2022-11-22T12:23:03.933Z,0.97
2022-11-22T12:25:37.647Z,0.80
2022-11-22T12:28:17.633Z,0.70
2022-11-22T12:30:47.848Z,0.97
2022-11-22T12:33:20.443Z,0.60
2022-11-22T12:35:50.699Z,0.80
2022-11-22T12:38:21.356Z,1.13
2022-11-22T12:40:53.995Z,0.70
2022-11-22T12:43:26.586Z,1.63
2022-11-22T12:45:57.780Z,1.17
2022-11-22T12:48:33.520Z,0.70
2022-11-22T12:51:07.420Z,0.60
2022-11-22T12:53:39.063Z,0.70
2022-11-22T12:56:17.575Z,0.70
2022-11-22T12:58:53.602Z,0.93
2022-11-22T13:01:25.949Z,0.63
2022-11-22T13:03:58.245Z,0.83
2022-11-22T13:06:30.329Z,0.77
2022-11-22T13:09:04.021Z,0.63
2022-11-22T13:11:38.455Z,0.60
2022-11-22T13:14:16.352Z,0.50
2022-11-22T13:16:47.875Z,0.50
2022-11-22T13:19:18.165Z,0.60
2022-11-22T13:22:00.443Z,0.40
2022-11-22T13:24:38.229Z,0.40
2022-11-22T13:27:18.654Z,0.40
2022-11-22T13:29:47.456Z,0.40
2022-11-22T13:32:20.147Z,0.30
2022-11-22T13:35:08.608Z,0.50
2022-11-22T13:37:40.133Z,0.40
2022-11-22T13:40:23.789Z,0.40
2022-11-22T13:43:25.318Z,0.40
2022-11-22T13:45:55.762Z,0.60
2022-11-22T13:48:54.457Z,0.50
2022-11-22T13:51:52.876Z,0.60
2022-11-22T13:55:01.830Z,0.50
2022-11-22T13:57:33.839Z,0.40
2022-11-22T14:00:48.126Z,0.90
2022-11-22T14:03:40.757Z,0.40
2022-11-22T14:06:25.907Z,0.50
2022-11-22T14:09:30.925Z,0.50
2022-11-22T14:12:17.834Z,0.50
2022-11-22T14:14:55.781Z,0.50
2022-11-22T14:17:35.577Z,0.40
2022-11-22T14:20:22.966Z,0.40
2022-11-22T14:22:58.199Z,0.40
2022-11-22T14:25:56.556Z,0.40
2022-11-22T14:28:46.221Z,0.30
2022-11-22T14:31:21.518Z,0.50
2022-11-22T14:34:16.483Z,0.50
2022-11-22T14:36:46.702Z,0.40
2022-11-22T14:39:53.233Z,0.40
2022-11-22T14:42:50.436Z,0.50
2022-11-22T14:45:23.583Z,0.60
2022-11-22T14:48:16.454Z,0.50
2022-11-22T14:50:48.254Z,2.53
2022-11-22T14:53:35.784Z,0.60
2022-11-22T14:56:16.995Z,0.60
2022-11-22T14:59:02.403Z,0.40
2022-11-22T15:01:57.305Z,0.50
2022-11-22T15:09:14.770Z,0.60
2022-11-22T15:09:17.127Z,0.70
2022-11-22T15:11:38.146Z,0.60
2022-11-22T15:14:48.692Z,0.50
2022-11-22T15:57:36.818Z,0.50
2022-11-22T16:00:26.486Z,0.50
2022-11-22T16:02:57.294Z,0.73
2022-11-22T16:06:07.736Z,1.10
2022-11-22T16:08:21.482Z,0.70
2022-11-22T16:10:51.771Z,0.67
2022-11-22T16:13:28.351Z,0.60
2022-11-22T16:16:17.077Z,0.50
2022-11-22T16:18:48.327Z,0.50
2022-11-22T16:21:30.278Z,0.60
2022-11-22T16:24:16.453Z,0.50
2022-11-22T16:26:55.813Z,0.73
2022-11-22T16:29:29.287Z,0.73
2022-11-22T16:32:03.724Z,0.70
2022-11-22T16:34:31.949Z,0.90
2022-11-22T16:37:01.873Z,1.17
2022-11-22T16:39:50.269Z,0.93
2022-11-22T16:42:39.326Z,1.30
2022-11-22T16:45:14.550Z,1.13
2022-11-22T16:47:42.793Z,0.80
2022-11-22T16:50:13.616Z,2.77
2022-11-22T16:52:45.303Z,1.13
2022-11-22T16:55:17.106Z,1.10
2022-11-22T16:57:45.488Z,1.20
2022-11-22T17:00:14.584Z,1.63
2022-11-22T17:02:43.342Z,1.10
2022-11-22T17:05:17.461Z,1.00
2022-11-22T17:07:47.022Z,0.83
2022-11-22T17:10:16.834Z,0.83
2022-11-22T17:12:44.905Z,0.70
2022-11-22T17:15:17.150Z,0.83
2022-11-22T17:17:45.284Z,0.70
2022-11-22T17:20:13.558Z,0.90
2022-11-22T17:22:43.046Z,0.50
2022-11-22T17:25:14.594Z,0.80
2022-11-22T17:27:42.704Z,0.70
2022-11-22T17:30:13.056Z,0.63
2022-11-22T17:32:41.205Z,0.60
2022-11-22T17:35:10.857Z,0.87
2022-11-22T17:37:38.987Z,0.63
2022-11-22T17:43:50.635Z,0.70
2022-11-22T17:46:39.809Z,0.80
2022-11-22T17:49:14.159Z,0.70
2022-11-22T17:52:02.347Z,0.70
2022-11-22T17:54:50.923Z,0.90
2022-11-22T17:57:19.317Z,1.27
2022-11-22T17:59:48.962Z,1.20
2022-11-22T18:02:17.325Z,1.20
2022-11-22T18:04:45.811Z,0.80
2022-11-22T18:07:14.243Z,0.60
2022-11-22T18:09:43.669Z,0.57
2022-11-22T18:12:12.011Z,0.60
2022-11-22T18:14:40.691Z,0.60
2022-11-22T18:17:10.562Z,0.90
2022-11-22T18:19:41.183Z,0.70
2022-11-22T18:22:11.575Z,0.90
2022-11-22T18:24:39.979Z,0.60
2022-11-22T18:27:10.485Z,0.77
2022-11-22T18:29:42.549Z,0.57
2022-11-22T18:32:13.271Z,0.60
2022-11-22T18:34:43.636Z,0.60
2022-11-22T18:37:11.936Z,0.50
2022-11-22T18:39:40.607Z,0.80
2022-11-22T18:42:12.918Z,0.60
2022-11-22T18:44:41.635Z,0.67
2022-11-22T18:47:10.335Z,0.90
2022-11-22T18:49:41.736Z,0.77
2022-11-22T18:52:13.344Z,0.60
2022-11-22T18:54:45.978Z,1.00
2022-11-22T18:57:14.823Z,0.97
2022-11-22T18:59:44.425Z,0.63
2022-11-22T19:02:12.698Z,0.63
2022-11-22T19:04:42.572Z,0.60
2022-11-22T19:07:11.450Z,0.70
2022-11-22T19:09:39.951Z,0.50
2022-11-22T19:12:09.441Z,0.60
2022-11-22T19:14:37.857Z,0.70
2022-11-22T19:17:06.967Z,0.60
2022-11-22T19:19:35.338Z,0.80
2022-11-22T19:22:05.135Z,0.60
2022-11-22T19:24:34.779Z,0.60
2022-11-22T19:27:03.937Z,0.50
2022-11-22T19:29:33.016Z,0.67
2022-11-22T19:32:01.512Z,0.80
2022-11-22T19:34:30.117Z,0.77
2022-11-22T19:37:00.172Z,0.70
2022-11-22T19:39:30.334Z,0.90
2022-11-22T19:42:20.999Z,0.90
2022-11-22T19:45:10.282Z,1.20
2022-11-22T19:47:38.678Z,1.40
2022-11-22T19:50:07.984Z,1.17
2022-11-22T19:52:37.567Z,1.43
2022-11-22T19:55:08.253Z,1.20
2022-11-22T19:57:38.143Z,1.00
2022-11-22T20:00:07.783Z,0.77
2022-11-22T20:02:37.001Z,1.20
2022-11-22T20:05:06.485Z,1.53
2022-11-22T20:07:35.926Z,0.90
2022-11-22T20:10:04.830Z,1.10
2022-11-22T20:12:34.626Z,1.00
2022-11-22T20:15:04.157Z,1.40
2022-11-22T20:17:32.628Z,1.30
2022-11-22T20:20:00.927Z,0.90
2022-11-22T20:22:29.547Z,2.10
2022-11-22T20:24:59.722Z,1.17
2022-11-22T20:27:30.517Z,1.37
2022-11-22T20:30:01.320Z,1.00
2022-11-22T20:32:30.677Z,1.27
2022-11-22T20:34:59.412Z,1.20
2022-11-22T20:37:28.479Z,1.60
2022-11-22T20:39:56.901Z,0.90
2022-11-22T20:42:40.524Z,1.10
2022-11-22T20:45:11.085Z,1.43
2022-11-22T20:47:39.745Z,1.30
2022-11-22T20:50:09.450Z,1.47
2022-11-22T20:52:45.004Z,1.00
2022-11-22T20:55:22.906Z,1.50
2022-11-22T20:57:54.041Z,1.10
2022-11-22T21:00:24.926Z,4.20
2022-11-22T21:02:53.264Z,1.60
2022-11-22T21:05:27.759Z,3.03
2022-11-22T21:07:56.183Z,1.30
2022-11-22T21:10:24.606Z,3.07
2022-11-22T21:12:54.098Z,1.40
2022-11-22T21:15:24.625Z,3.57
2022-11-22T21:18:23.177Z,1.83
2022-11-22T21:20:41.557Z,1.97
2022-11-22T21:23:12.020Z,1.70
2022-11-22T21:25:44.547Z,1.77
2022-11-22T21:28:14.594Z,1.70
2022-11-22T21:30:53.664Z,1.63
2022-11-22T21:33:26.683Z,2.10
2022-11-22T21:35:56.391Z,2.43
2022-11-22T21:38:31.134Z,1.50
2022-11-22T21:41:24.269Z,1.70
2022-11-22T21:43:50.979Z,1.77
2022-11-22T21:46:20.944Z,1.67
2022-11-22T21:48:50.335Z,1.40
2022-11-22T21:51:22.432Z,1.63
2022-11-22T21:53:50.850Z,1.80
2022-11-22T21:56:19.453Z,2.23
2022-11-22T21:58:48.960Z,3.03
2022-11-22T22:01:17.458Z,3.17
2022-11-22T22:03:47.257Z,2.27
2022-11-22T22:06:16.599Z,1.67
2022-11-22T22:08:45.072Z,1.93
2022-11-22T22:11:13.554Z,2.20
2022-11-22T22:13:42.856Z,1.30
2022-11-22T22:16:15.775Z,1.97
2022-11-22T22:18:44.523Z,1.50
2022-11-22T22:21:16.086Z,2.00
2022-11-22T22:23:45.909Z,1.93
2022-11-22T22:26:16.118Z,1.67
2022-11-22T22:28:53.782Z,1.40
2022-11-22T22:31:24.763Z,2.23
2022-11-22T22:33:59.863Z,1.97
2022-11-22T22:36:29.550Z,1.53
2022-11-22T22:38:57.950Z,2.00
2022-11-22T22:41:26.226Z,1.93
2022-11-22T22:43:56.628Z,1.83
2022-11-22T22:46:25.854Z,1.83
2022-11-22T22:48:56.272Z,1.93
2022-11-22T22:51:32.805Z,1.70
2022-11-22T22:54:02.010Z,1.33
2022-11-22T22:56:31.571Z,2.40
2022-11-22T22:59:01.085Z,1.43
2022-11-22T23:01:31.541Z,1.37
2022-11-22T23:04:02.438Z,1.57
2022-11-22T23:06:34.100Z,1.70
2022-11-22T23:09:07.467Z,2.10
2022-11-22T23:11:54.437Z,2.07
2022-11-22T23:14:24.516Z,2.13
2022-11-22T23:16:57.280Z,1.70
2022-11-22T23:19:27.960Z,1.80
2022-11-22T23:21:57.570Z,2.17
2022-11-22T23:24:25.843Z,2.03
2022-11-22T23:26:54.501Z,1.80
2022-11-22T23:29:23.327Z,1.90
2022-11-22T23:31:51.709Z,1.83
2022-11-22T23:34:20.333Z,1.73
2022-11-22T23:36:49.055Z,1.97
2022-11-22T23:39:19.127Z,1.73
2022-11-22T23:41:47.384Z,1.40
2022-11-22T23:44:15.776Z,1.73
2022-11-22T23:46:44.172Z,1.63
2022-11-22T23:49:13.104Z,1.97
2022-11-22T23:51:42.455Z,1.97
2022-11-22T23:54:11.627Z,1.60
2022-11-22T23:56:42.553Z,1.70
2022-11-22T23:59:12.107Z,2.10
